Nearby METAR Reports

Sorted by Distance from Carson Valley Weather Station - Minden, Nevada

 

KMEV - Minden, Nevada, USA
Distance from station: SSW 3mi, 5km
Updated: Tue, 01-Dec-2020 9:55pm PST
Clear
Clear
 Wind from calm
Wind: Calm
Temperature: 21°F , -6°C
Dew Point: 18°F , -8°C
Humidity: 86%
Barometer: 30.40 inHg , 1029.5 hPa
Clouds: Clear
Visibility: 10 miles , 16 km
2020/12/02 05:55 KMEV 020555Z AUTO 00000KT 10SM CLR M06/M08 A3040 RMK AO2
KCXP - Carson City, Nevada, USA
Distance from station: N 10mi, 16km
Updated: Tue, 01-Dec-2020 9:55pm PST
Clear
Clear
 Wind from calm
Wind: Calm
Temperature: 28°F , -2°C
Dew Point: 19°F , -7°C
Humidity: 69%
Barometer: 30.41 inHg , 1029.8 hPa
Clouds: Clear
Visibility: 10 miles , 16 km
2020/12/02 05:55 KCXP 020555Z AUTO 00000KT 10SM CLR M02/M07 A3041 RMK AO2
 
KTVL - South Lake Tahoe, California, USA
Distance from station: WSW 18mi, 29km
Updated: Tue, 01-Dec-2020 9:53pm PST
Clear
Clear
 Wind from SSW
Wind: SSW 3 mph , 6 km/h
Temperature: 25°F , -4°C
Dew Point: 21°F , -6°C
Humidity: 86%
Barometer: 30.33 inHg , 1027.1 hPa
Clouds: Clear
Visibility: 10 miles , 16 km
2020/12/02 05:53 KTVL 020553Z AUTO 20003KT 10SM CLR M04/M06 A3033 RMK AO2 SLP277 T10391061 10050 21039 53006
KTRK - Truckee Tahoe, California, USA
Distance from station: NW 29mi, 46km
Updated: Tue, 01-Dec-2020 9:58pm PST
Clear
Clear
 Wind from calm
Wind: Calm
Temperature: 21°F , -6°C
Dew Point: 21°F , -6°C
Humidity: 100%
Barometer: 30.36 inHg , 1028.1 hPa
Clouds: Clear
Visibility: 10 miles , 16 km
2020/12/02 05:58 KTRK 020558Z AUTO 00000KT 10SM CLR M06/M06 A3036 RMK AO2
 
KRNO - Reno, Nevada, USA
Distance from station: N 32mi, 51km
Updated: Tue, 01-Dec-2020 9:55pm PST
Clear
Clear
 Wind from WNW
Wind: WNW 5 mph , 7 km/h
Temperature: 34°F , 1°C
Wind Chill: 29°F , -2°C
Dew Point: 23°F , -5°C
Humidity: 65%
Barometer: 30.39 inHg , 1029.1 hPa
Clouds: Clear
Visibility: 10 miles , 16 km
2020/12/02 05:55 KRNO 020555Z 29004KT 10SM CLR 01/M05 A3039 RMK AO2 SLP297 T00061050 10083 20006 51008
KRTS - Reno/Stead, Nevada, USA
Distance from station: NNW 44mi, 71km
Updated: Tue, 01-Dec-2020 9:55pm PST
Clear
Clear
 Wind from E
Wind: E 6 mph , 9 km/h
Temperature: 28°F , -2°C
Wind Chill: 21°F , -6°C
Dew Point: 19°F , -7°C
Humidity: 69%
Barometer: 30.39 inHg , 1029.1 hPa
Clouds: Clear
Visibility: 10 miles , 16 km
2020/12/02 05:55 KRTS 020555Z AUTO 09005KT 10SM CLR M02/M07 A3039 RMK AO2
 
KBAN - Bridgeport(Mcmwt, California, USA
Distance from station: SSE 49mi, 79km
Updated: Tue, 01-Dec-2020 9:52pm PST
Clear
Clear
 Wind from calm
Wind: Calm
Temperature: 21°F , -6°C
Dew Point: 14°F , -10°C
Humidity: 74%
Barometer: 30.35 inHg , 1027.8 hPa
Clouds: Clear
Visibility: 10 miles , 16 km
2020/12/02 05:52 KBAN 020552Z AUTO 00000KT 10SM CLR M06/M10 A3035 RMK AO2 SLP296 T10561100 10061 21067 53002 FZRANO $
KBLU - Emigrant Gap, California, USA
Distance from station: WNW 55mi, 89km
Updated: Tue, 01-Dec-2020 9:52pm PST
Clear
Clear
 Wind from ENE
Wind: ENE 5 mph , 7 km/h
Temperature: 52°F , 11°C
Dew Point: 10°F , -12°C
Humidity: 19%
Barometer: 30.22 inHg , 1023.4 hPa
Clouds: Clear
Visibility: 10 miles , 16 km
2020/12/02 05:52 KBLU 020552Z AUTO 06004KT 10SM CLR 11/M12 A3022 RMK AO2 SLP182 T01111117 10144 20106 53002
 
KPVF - Placerville, California, USA
Distance from station: WSW 60mi, 96km
Updated: Tue, 01-Dec-2020 9:55pm PST
Clear
Clear
 Wind from calm
Wind: Calm
Temperature: 50°F , 10°C
Dew Point: 32°F , 0°C
Humidity: 50%
Barometer: 30.18 inHg , 1022 hPa
Clouds: Clear
Visibility: 10 miles , 16 km
2020/12/02 05:55 KPVF 020555Z AUTO 00000KT 10SM CLR 10/00 A3018 RMK AO1
KNFL - Fallon Nas, Nevada, USA
Distance from station: ENE 61mi, 97km
Updated: Tue, 01-Dec-2020 9:56pm PST
Clear
Clear
 Wind from varies
Wind: varies 6 mph , 9 km/h
Temperature: 25°F , -4°C
Wind Chill: 18°F , -8°C
Dew Point: 16°F , -9°C
Humidity: 69%
Barometer: 30.40 inHg , 1029.5 hPa
Clouds: Clear
Visibility: 10 miles , 16 km
2020/12/02 05:56 KNFL 020556Z VRB05KT 10SM CLR M04/M09 A3040 RMK AO2 SLP250 T10391089 10083 21050 51006
 
KHTH - Hawthorne, Nevada, USA
Distance from station: ESE 68mi, 109km
Updated: Tue, 01-Dec-2020 9:55pm PST
Clear
Clear
 Wind from SSW
Wind: SSW 5 mph , 7 km/h
Temperature: 32°F , 0°C
Wind Chill: 27°F , -3°C
Dew Point: 23°F , -5°C
Humidity: 69%
Barometer: 30.40 inHg , 1029.5 hPa
Clouds: Clear
Visibility: 10 miles , 16 km
2020/12/02 05:55 KHTH 020555Z AUTO 21004KT 10SM CLR 00/M05 A3040 RMK A01
KGOO - Grass Valley, California, USA
Distance from station: W 70mi, 112km
Updated: Tue, 01-Dec-2020 9:55pm PST
Clear
Clear
 Wind from SSE
Wind: SSE 3 mph , 6 km/h
Temperature: 46°F , 8°C
Dew Point: 32°F , 0°C
Humidity: 57%
Barometer: 30.16 inHg , 1021.3 hPa
Clouds: Clear
Visibility: 10 miles , 16 km
2020/12/02 05:55 KGOO 020555Z AUTO 15003KT 10SM CLR 08/00 A3016 RMK A01
 
KAUN - Auburn Muni, California, USA
Distance from station: W 73mi, 118km
Updated: Tue, 01-Dec-2020 9:55pm PST
Clear
Clear
 Wind from E
Wind: E 5 mph , 7 km/h
Temperature: 46°F , 8°C
Wind Chill: 44°F , 7°C
Dew Point: 36°F , 2°C
Humidity: 66%
Barometer: 30.16 inHg , 1021.3 hPa
Clouds: Clear
Visibility: 10 miles , 16 km
2020/12/02 05:55 KAUN 020555Z AUTO 09004KT 10SM CLR 08/02 A3016 RMK A01
KO22 - Columbia, California, USA
Distance from station: SSW 79mi, 127km
Updated: Tue, 01-Dec-2020 10:15pm PST
Clear
Clear
 Wind from calm
Wind: Calm
Temperature: 39°F , 4°C
Dew Point: 36°F , 2°C
Humidity: 87%
Barometer: 30.16 inHg , 1021.3 hPa
Clouds: Clear
Visibility: 8 miles , 13 km
2020/12/02 06:15 KO22 020615Z AUTO 00000KT 8SM CLR 04/02 A3016 RMK A01
 
KLHM - Lincoln, California, USA
Distance from station: W 88mi, 141km
Updated: Tue, 01-Dec-2020 9:55pm PST
Clear
Clear
 Wind from E
Wind: E 6 mph , 9 km/h
Temperature: 37°F , 3°C
Wind Chill: 32°F , 0°C
Dew Point: 34°F , 1°C
Humidity: 87%
Barometer: 30.14 inHg , 1020.7 hPa
Clouds: Clear
Visibility: 10 miles , 16 km
2020/12/02 05:55 KLHM 020555Z AUTO 08005KT 10SM CLR 03/01 A3014 RMK AO1
KBAB - Beale Afb/Marysv, California, USA
Distance from station: W 91mi, 147km
Updated: Tue, 01-Dec-2020 9:58pm PST
Clear
Clear
 Wind from ENE
Wind: ENE 5 mph , 7 km/h
Temperature: 45°F , 7°C
Wind Chill: 42°F , 6°C
Dew Point: 36°F , 2°C
Humidity: 71%
Barometer: 30.14 inHg , 1020.7 hPa
Clouds: Clear
Visibility: 10 miles , 16 km
2020/12/02 05:58 KBAB 020558Z AUTO 07004KT 10SM CLR 07/02 A3014 RMK AO2 SLP210 T00670016 10152 20061 52010 $
 
KMHR - Mather Field, California, USA
Distance from station: WSW 91mi, 147km
Updated: Tue, 01-Dec-2020 4:45pm PST
NOT Current
Clear
Clear
 Wind from SE
Wind: SE 5 mph , 7 km/h
Temperature: 57°F , 14°C
Dew Point: 34°F , 1°C
Humidity: 41%
Barometer: 30.11 inHg , 1019.6 hPa
Clouds: Clear
Visibility: 10 miles , 16 km
2020/12/02 00:45 KMHR 020045Z 13004KT 10SM SKC 14/01 A3011
KLOL - Lovelock, Nevada, USA
Distance from station: NE 94mi, 151km
Updated: Tue, 01-Dec-2020 9:53pm PST

 
Barometer: 30.41 inHg , 1029.8 hPa
2020/12/02 05:53 KLOL 020553Z AUTO A3041 RMK AO2 SLPNO 51006 PWINO FZRANO $
 
KMCC - Mcclellan Afb, California, USA
Distance from station: WSW 94mi, 151km
Updated: Tue, 01-Dec-2020 9:55pm PST
Clear
Clear
 Wind from calm
Wind: Calm
Temperature: 45°F , 7°C
Dew Point: 36°F , 2°C
Humidity: 71%
Barometer: 30.15 inHg , 1021 hPa
Clouds: Clear
Visibility: 10 miles , 16 km
2020/12/02 05:55 KMCC 020555Z AUTO 00000KT 10SM CLR 07/02 A3015 RMK AO2
KMYV - Marysville, California, USA
Distance from station: W 99mi, 159km
Updated: Tue, 01-Dec-2020 9:53pm PST
Clear
Clear
 Wind from calm
Wind: Calm
Temperature: 43°F , 6°C
Dew Point: 36°F , 2°C
Humidity: 76%
Barometer: 30.16 inHg , 1021.3 hPa
Clouds: Clear
Visibility: 10 miles , 16 km
2020/12/02 05:53 KMYV 020553Z AUTO 00000KT 10SM CLR 06/02 A3016 RMK AO2 SLP215 T00610022 10161 20061 51010
 
KSVE - Susanville Muni, California, USA
Distance from station: NNW 102mi, 164km
Updated: Tue, 01-Dec-2020 9:55pm PST
Haze, Clear
Haze, Clear
 Wind from calm
Wind: Calm
Temperature: 28°F , -2°C
Dew Point: 23°F , -5°C
Humidity: 80%
Barometer: 30.39 inHg , 1029.1 hPa
Summary: Haze
Clouds: Clear
Visibility: 3 miles , 5 km
2020/12/02 05:55 KSVE 020555Z AUTO 00000KT 3SM HZ CLR M02/M05 A3039 RMK AO2
KSAC - Sacramento, California, USA
Distance from station: WSW 103mi, 165km
Updated: Tue, 01-Dec-2020 9:53pm PST
Clear
Clear
 Wind from calm
Wind: Calm
Temperature: 43°F , 6°C
Dew Point: 34°F , 1°C
Humidity: 71%
Barometer: 30.15 inHg , 1021 hPa
Clouds: Clear
Visibility: 8 miles , 13 km
2020/12/02 05:53 KSAC 020553Z AUTO 00000KT 8SM CLR 06/01 A3015 RMK AO2 SLP208 T00560011 10167 20050 51008
 
KSMF - Sacramento/Metro, California, USA
Distance from station: WSW 104mi, 167km
Updated: Tue, 01-Dec-2020 9:53pm PST
Clear
Clear
 Wind from calm
Wind: Calm
Temperature: 45°F , 7°C
Dew Point: 37°F , 3°C
Humidity: 76%
Barometer: 30.14 inHg , 1020.7 hPa
Clouds: Clear
Visibility: 8 miles , 13 km
2020/12/02 05:53 KSMF 020553Z 00000KT 8SM CLR 07/03 A3014 RMK AO2 SLP206 T00670033 10161 20067 51008
KOVE - Oroville, California, USA
Distance from station: WNW 106mi, 171km
Updated: Tue, 01-Dec-2020 9:53pm PST
Clear
Clear
 Wind from E
Wind: E 7 mph , 11 km/h
Temperature: 48°F , 9°C
Wind Chill: 45°F , 7°C
Dew Point: 36°F , 2°C
Humidity: 62%
Barometer: 30.16 inHg , 1021.3 hPa
Clouds: Clear
Visibility: 10 miles , 16 km
2020/12/02 05:53 KOVE 020553Z AUTO 08006KT 10SM CLR 09/02 A3016 RMK AO2 SLP215 T00890022 10167 20083 51010
 
KMMH - Mammoth/June Lak, California, USA
Distance from station: SSE 110mi, 177km
Updated: Tue, 01-Dec-2020 9:57pm PST
Clear
Clear
 Wind from NNW
Wind: NNW 6 mph , 9 km/h
Temperature: 28°F , -2°C
Wind Chill: 21°F , -6°C
Dew Point: 10°F , -12°C
Humidity: 47%
Barometer: 30.35 inHg , 1027.8 hPa
Clouds: Clear
Visibility: 10 miles , 16 km
2020/12/02 05:57 KMMH 020557Z AUTO 34005KT 10SM CLR M02/M12 A3035 RMK AO2
KSCK - Stockton, California, USA
Distance from station: SW 114mi, 183km
Updated: Tue, 01-Dec-2020 9:55pm PST
Clear
Clear
 Wind from E
Wind: E 3 mph , 6 km/h
Temperature: 46°F , 8°C
Dew Point: 34°F , 1°C
Humidity: 62%
Barometer: 30.14 inHg , 1020.7 hPa
Clouds: Clear
Visibility: 9 miles , 14 km
2020/12/02 05:55 KSCK 020555Z AUTO 08003KT 9SM CLR 08/01 A3014 RMK AO2 SLP205 T00830006 10183 20072 51008
 
KEDU - Davis, California, USA
Distance from station: WSW 116mi, 187km
Updated: Tue, 01-Dec-2020 9:55pm PST
Clear
Clear
 Wind from calm
Wind: Calm
Temperature: 45°F , 7°C
Dew Point: 36°F , 2°C
Humidity: 71%
Barometer: 30.15 inHg , 1021 hPa
Clouds: Clear
Visibility: 10 miles , 16 km
2020/12/02 05:55 KEDU 020555Z AUTO 00000KT 10SM CLR 07/02 A3015 RMK AO1
KMOD - Modesto, California, USA
Distance from station: SW 119mi, 191km
Updated: Tue, 01-Dec-2020 9:53pm PST
Clear
Clear
 Wind from calm
Wind: Calm
Temperature: 41°F , 5°C
Dew Point: 36°F , 2°C
Humidity: 81%
Barometer: 30.14 inHg , 1020.7 hPa
Clouds: Clear
Visibility: 8 miles , 13 km
2020/12/02 05:53 KMOD 020553Z AUTO 00000KT 8SM CLR 05/02 A3014 RMK AO2 SLP205 T00500017 10167 20044 53007
 
KMER - Merced/Castle Af, California, USA
Distance from station: SSW 123mi, 198km
Updated: Tue, 01-Dec-2020 9:55pm PST
Clear
Clear
 Wind from calm
Wind: Calm
Temperature: 37°F , 3°C
Dew Point: 37°F , 3°C
Humidity: 100%
Barometer: 30.14 inHg , 1020.7 hPa
Clouds: Clear
Visibility: 5 miles , 8 km
2020/12/02 05:55 KMER 020555Z AUTO 00000KT 5SM CLR 03/03 A3014 RMK AO1
KCIC - Chico Municipal, California, USA
Distance from station: WNW 124mi, 199km
Updated: Tue, 01-Dec-2020 9:55pm PST
Clear
Clear
 Wind from ENE
Wind: ENE 5 mph , 7 km/h
Temperature: 48°F , 9°C
Wind Chill: 46°F , 8°C
Dew Point: 32°F , 0°C
Humidity: 54%
Barometer: 30.16 inHg , 1021.3 hPa
Clouds: Clear
Visibility: 10 miles , 16 km
2020/12/02 05:55 KCIC 020555Z AUTO 06004KT 10SM CLR 09/00 A3016 RMK AO1
 
KMCE - Merced, California, USA
Distance from station: SSW 128mi, 207km
Updated: Tue, 01-Dec-2020 9:53pm PST
Haze, Clear
Haze, Clear
 Wind from calm
Wind: Calm
Temperature: 39°F , 4°C
Dew Point: 34°F , 1°C
Humidity: 81%
Barometer: 30.14 inHg , 1020.7 hPa
Summary: Haze
Clouds: Clear
Visibility: 5 miles , 8 km
2020/12/02 05:53 KMCE 020553Z AUTO 00000KT 5SM HZ CLR 04/01 A3014 RMK AO2 SLP205 T00440011 10167 20039 53005
KVCB - Vacaville, California, USA
Distance from station: WSW 128mi, 207km
Updated: Tue, 01-Dec-2020 9:53pm PST
Clear
Clear
 Wind from calm
Wind: Calm
Temperature: 39°F , 4°C
Dew Point: 34°F , 1°C
Humidity: 81%
Barometer: 30.14 inHg , 1020.7 hPa
Clouds: Clear
Visibility: 10 miles , 16 km
2020/12/02 05:53 KVCB 020553Z AUTO 00000KT 10SM CLR 04/01 A3014 RMK AO2 SLP207 T00390006 10178 20039 53001
 
KSUU - Travis Afb/Fairf, California, USA
Distance from station: WSW 130mi, 209km
Updated: Tue, 01-Dec-2020 9:58pm PST
Clear
Clear
 Wind from WSW
Wind: WSW 6 mph , 9 km/h
Temperature: 41°F , 5°C
Wind Chill: 37°F , 3°C
Dew Point: 34°F , 1°C
Humidity: 76%
Barometer: 30.13 inHg , 1020.3 hPa
Clouds: Clear
Visibility: 10 miles , 16 km
2020/12/02 05:58 KSUU 020558Z AUTO 25005KT 10SM CLR 05/01 A3013 RMK AO2 SLP210 T00530010 10179 20041 50001 $
KBIH - Bishop, California, USA
Distance from station: SE 137mi, 221km
Updated: Tue, 01-Dec-2020 9:56pm PST
Clear
Clear
 Wind from WNW
Wind: WNW 9 mph , 15 km/h
Temperature: 39°F , 4°C
Wind Chill: 33°F , 1°C
Dew Point: 10°F , -12°C
Humidity: 30%
Barometer: 30.26 inHg , 1024.7 hPa
Clouds: Clear
Visibility: 10 miles , 16 km
2020/12/02 05:56 KBIH 020556Z AUTO 29008KT 10SM CLR 04/M12 A3026 RMK AO2 SLP230 T00441122 10211 20044 53007
 
KMAE - Madera, California, USA
Distance from station: S 144mi, 231km
Updated: Tue, 01-Dec-2020 9:53pm PST
Clear
Clear
 Wind from NE
Wind: NE 7 mph , 11 km/h
Temperature: 41°F , 5°C
Wind Chill: 36°F , 2°C
Dew Point: 34°F , 1°C
Humidity: 76%
Barometer: 30.15 inHg , 1021 hPa
Clouds: Clear
Visibility: 8 miles , 13 km
2020/12/02 05:53 KMAE 020553Z AUTO 05006KT 8SM CLR 05/01 A3015 RMK AO2 SLP211 T00500006 10167 20044 53002
KCCR - Concord, California, USA
Distance from station: WSW 145mi, 233km
Updated: Tue, 01-Dec-2020 9:53pm PST
Clear
Clear
 Wind from calm
Wind: Calm
Temperature: 46°F , 8°C
Dew Point: 36°F , 2°C
Humidity: 66%
Barometer: 30.14 inHg , 1020.7 hPa
Clouds: Clear
Visibility: 10 miles , 16 km
2020/12/02 05:53 KCCR 020553Z AUTO 00000KT 10SM CLR 08/02 A3014 RMK AO2 SLP192 T00780017 10189 20078 51004
 
KLVK - Livermore, California, USA
Distance from station: SW 146mi, 236km
Updated: Tue, 01-Dec-2020 9:53pm PST
Clear
Clear
 Wind from E
Wind: E 3 mph , 6 km/h
Temperature: 45°F , 7°C
Dew Point: 30°F , -1°C
Humidity: 57%
Barometer: 30.14 inHg , 1020.7 hPa
Clouds: Clear
Visibility: 10 miles , 16 km
2020/12/02 05:53 KLVK 020553Z AUTO 09003KT 10SM CLR 07/M01 A3014 RMK AO2 SLP204 T00671011 10172 20056 51005
KAPC - Napa, California, USA
Distance from station: WSW 150mi, 241km
Updated: Tue, 01-Dec-2020 9:54pm PST
Clear
Clear
 Wind from NNE
Wind: NNE 6 mph , 9 km/h
Temperature: 41°F , 5°C
Wind Chill: 37°F , 3°C
Dew Point: 34°F , 1°C
Humidity: 76%
Barometer: 30.14 inHg , 1020.7 hPa
Clouds: Clear
Visibility: 10 miles , 16 km
2020/12/02 05:54 KAPC 020554Z AUTO 02005KT 10SM CLR 05/01 A3014 RMK AO2 SLP198 T00500006 10172 20044 51004
 
KRBL - Red Bluff, California, USA
Distance from station: WNW 155mi, 249km
Updated: Tue, 01-Dec-2020 9:54pm PST
Clear
Clear
 Wind from calm
Wind: Calm
Temperature: 46°F , 8°C
Dew Point: 28°F , -2°C
Humidity: 50%
Barometer: 30.16 inHg , 1021.3 hPa
Clouds: Clear
Visibility: 10 miles , 16 km
2020/12/02 05:54 KRBL 020554Z AUTO 00000KT 10SM CLR 08/M02 A3016 RMK AO2 SLP211 T00831017 10200 20083 53017
KFAT - Fresno, California, USA
Distance from station: S 156mi, 251km
Updated: Tue, 01-Dec-2020 9:53pm PST
Clear
Clear
 Wind from calm
Wind: Calm
Temperature: 46°F , 8°C
Dew Point: 34°F , 1°C
Humidity: 62%
Barometer: 30.15 inHg , 1021 hPa
Clouds: Clear
Visibility: 7 miles , 11 km
2020/12/02 05:53 KFAT 020553Z 00000KT 7SM CLR 08/01 A3015 RMK AO2 SLP208 T00830006 10172 20083 53002
 
KTPH - Tonopah, Nevada, USA
Distance from station: ESE 158mi, 254km
Updated: Tue, 01-Dec-2020 9:56pm PST
Clear
Clear
 Wind from N
Wind: N 9 mph , 15 km/h
Temperature: 34°F , 1°C
Wind Chill: 27°F , -3°C
Dew Point: 14°F , -10°C
Humidity: 44%
Barometer: 30.31 inHg , 1026.4 hPa
Clouds: Clear
Visibility: 10 miles , 16 km
2020/12/02 05:56 KTPH 020556Z AUTO 35008KT 10SM CLR 01/M10 A3031 RMK AO2 SLP261 T00111100 10100 21006 50003
KFCH - Fresno Chandler, California, USA
Distance from station: S 161mi, 258km
Updated: Thu, 14-May-2020 3:35am PDT
NOT Current
Few Clouds
Few Clouds
 Wind from NW
Wind: NW 13 mph , 20 km/h
Temperature: 59°F , 15°C
Dew Point: 48°F , 9°C
Humidity: 68%
Barometer: 30.06 inHg , 1017.9 hPa
Clouds: Few Clouds
Visibility: 10 miles , 16 km
Cloud details: Few Clouds 2900 ft
2020/05/14 10:35 KFCH 141035Z AUTO 32011KT 10SM FEW029 15/09 A3006 RMK A01
 
KHWD - Hayward, California, USA
Distance from station: SW 161mi, 259km
Updated: Tue, 01-Dec-2020 9:54pm PST
Clear
Clear
 Wind from ENE
Wind: ENE 5 mph , 7 km/h
Temperature: 50°F , 10°C
Wind Chill: 48°F , 9°C
Dew Point: 34°F , 1°C
Humidity: 54%
Barometer: 30.14 inHg , 1020.7 hPa
Clouds: Clear
Visibility: 10 miles , 16 km
2020/12/02 05:54 KHWD 020554Z 07004KT 10SM CLR 10/01 A3014 RMK AO2 SLPNO T01000011 10172 20100 51004
KOAK - Oakland, California, USA
Distance from station: SW 164mi, 264km
Updated: Tue, 01-Dec-2020 9:53pm PST
Few Clouds
Few Clouds
 Wind from calm
Wind: Calm
Temperature: 50°F , 10°C
Dew Point: 43°F , 6°C
Humidity: 76%
Barometer: 30.15 inHg , 1021 hPa
Clouds: Few Clouds
Visibility: 10 miles , 16 km
Cloud details: Few Clouds 20000 ft
2020/12/02 05:53 KOAK 020553Z 00000KT 10SM FEW200 10/06 A3015 RMK AO2 SLP209 T01000061 10172 20089 52004
 
KWMC - Winnemucca, Nevada, USA
Distance from station: NE 164mi, 264km
Updated: Tue, 01-Dec-2020 9:56pm PST
Clear
Clear
 Wind from W
Wind: W 6 mph , 9 km/h
Temperature: 25°F , -4°C
Wind Chill: 18°F , -8°C
Dew Point: 16°F , -9°C
Humidity: 69%
Barometer: 30.42 inHg , 1030.1 hPa
Clouds: Clear
Visibility: 10 miles , 16 km
2020/12/02 05:56 KWMC 020556Z AUTO 26005KT 10SM CLR M04/M09 A3042 RMK AO2 SLP320 T10391089 10056 21050 51002
KDVO - Novato/Gnoss Fld, California, USA
Distance from station: WSW 165mi, 265km
Updated: Tue, 01-Dec-2020 9:55pm PST
Clear
Clear
 Wind from calm
Wind: Calm
Temperature: 41°F , 5°C
Dew Point: 39°F , 4°C
Humidity: 93%
Barometer: 30.15 inHg , 1021 hPa
Clouds: Clear
Visibility: 10 miles , 16 km
2020/12/02 05:55 KDVO 020555Z AUTO 00000KT 10SM CLR 05/04 A3015 RMK AO2
 
KO69 - Petaluma, California, USA
Distance from station: WSW 165mi, 265km
Updated: Tue, 01-Dec-2020 9:55pm PST
Few Clouds
Few Clouds
 Wind from calm
Wind: Calm
Temperature: 39°F , 4°C
Dew Point: 37°F , 3°C
Humidity: 93%
Barometer: 30.15 inHg , 1021 hPa
Clouds: Few Clouds
Visibility: 10 miles , 16 km
Cloud details: Few Clouds 3700 ft
2020/12/02 05:55 KO69 020555Z AUTO 00000KT 10SM FEW037 04/03 A3015 RMK A01
KRHV - San Jose/Reid, California, USA
Distance from station: SW 165mi, 265km
Updated: Tue, 01-Dec-2020 9:47pm PST
Clear
Clear
 Wind from calm
Wind: Calm
Temperature: 46°F , 8°C
Dew Point: 41°F , 5°C
Humidity: 82%
Barometer: 30.14 inHg , 1020.7 hPa
Clouds: Clear
Visibility: 10 miles , 16 km
2020/12/02 05:47 KRHV 020547Z 00000KT 10SM SKC 08/05 A3014 RMK LAST
 
KSJC - San Jose, California, USA
Distance from station: SW 166mi, 267km
Updated: Tue, 01-Dec-2020 9:53pm PST
Clear
Clear
 Wind from calm
Wind: Calm
Temperature: 48°F , 9°C
Dew Point: 37°F , 3°C
Humidity: 66%
Barometer: 30.13 inHg , 1020.3 hPa
Clouds: Clear
Visibility: 10 miles , 16 km
2020/12/02 05:53 KSJC 020553Z 00000KT 10SM CLR 09/03 A3013 RMK AO2 SLP203 T00890028 10167 20083 50002
KE16 - San Martin, California, USA
Distance from station: SW 169mi, 273km
Updated: Tue, 01-Dec-2020 9:55pm PST
Clear
Clear
 Wind from calm
Wind: Calm
Temperature: 46°F , 8°C
Dew Point: 37°F , 3°C
Humidity: 71%
Barometer: 30.15 inHg , 1021 hPa
Clouds: Clear
Visibility: 10 miles , 16 km
2020/12/02 05:55 KE16 020555Z AUTO 00000KT 10SM CLR 08/03 A3015 RMK AO2
 
KPAO - Palo Alto, California, USA
Distance from station: SW 169mi, 273km
Updated: Tue, 01-Dec-2020 6:47pm PST
NOT Current
Clear
Clear
 Wind from varies
Wind: varies 3 mph , 6 km/h
Temperature: 48°F , 9°C
Dew Point: 37°F , 3°C
Humidity: 66%
Barometer: 30.13 inHg , 1020.3 hPa
Clouds: Clear
Visibility: 10 miles , 16 km
2020/12/02 02:47 KPAO 020247Z VRB03KT 10SM SKC 09/03 A3013 RMK LAST
KNUQ - Moffett Nas/Mtn, California, USA
Distance from station: SW 170mi, 273km
Updated: Sun, 15-Nov-2020 2:00am PST
NOT Current
Clear
Clear
 Wind from calm
Wind: Calm
Temperature: 43°F , 6°C
Dew Point: 41°F , 5°C
Humidity: 93%
Barometer: 30.28 inHg , 1025.4 hPa
Clouds: Clear
Visibility: 10 miles , 16 km
2020/11/15 10:00 KNUQ 151000Z AUTO 00000KT 10SM CLR 06/05 A3028 RMK AO2
 
KRDD - Redding, California, USA
Distance from station: NW 171mi, 275km
Updated: Tue, 01-Dec-2020 9:53pm PST
Clear
Clear
 Wind from N
Wind: N 8 mph , 13 km/h
Temperature: 61°F , 16°C
Dew Point: 27°F , -3°C
Humidity: 27%
Barometer: 30.13 inHg , 1020.3 hPa
Clouds: Clear
Visibility: 10 miles , 16 km
2020/12/02 05:53 KRDD 020553Z AUTO 35007KT 10SM CLR 16/M03 A3013 RMK AO2 SLP202 T01561028 10200 20156 53007
KSTS - Santa Rosa, California, USA
Distance from station: WSW 171mi, 275km
Updated: Tue, 01-Dec-2020 9:53pm PST
Clear
Clear
 Wind from calm
Wind: Calm
Temperature: 41°F , 5°C
Dew Point: 37°F , 3°C
Humidity: 87%
Barometer: 30.15 inHg , 1021 hPa
Clouds: Clear
Visibility: 10 miles , 16 km
2020/12/02 05:53 KSTS 020553Z AUTO 00000KT 10SM CLR 05/03 A3015 RMK AO2 SLP204 T00500028 10189 20050 51005
 
KSQL - San Carlos Airpo, California, USA
Distance from station: SW 173mi, 278km
Updated: Tue, 01-Dec-2020 9:55pm PST
Clear
Clear
 Wind from calm
Wind: Calm
Temperature: 48°F , 9°C
Dew Point: 39°F , 4°C
Humidity: 71%
Barometer: 30.15 inHg , 1021 hPa
Clouds: Clear
Visibility: 10 miles , 16 km
2020/12/02 05:55 KSQL 020555Z AUTO 00000KT 10SM CLR 09/04 A3015 RMK AO2
KCVH - Hollister Muni, California, USA
Distance from station: SSW 174mi, 280km
Updated: Tue, 01-Dec-2020 9:55pm PST
Clear
Clear
 Wind from calm
Wind: Calm
Temperature: 46°F , 8°C
Dew Point: 30°F , -1°C
Humidity: 53%
Barometer: 30.14 inHg , 1020.7 hPa
Clouds: Clear
Visibility: 10 miles , 16 km
2020/12/02 05:55 KCVH 020555Z AUTO 00000KT 10SM CLR 08/M01 A3014 RMK A01
 
KSFO - San Francisco, California, USA
Distance from station: SW 174mi, 280km
Updated: Tue, 01-Dec-2020 9:56pm PST
Few Clouds
Few Clouds
 Wind from calm
Wind: Calm
Temperature: 50°F , 10°C
Dew Point: 39°F , 4°C
Humidity: 67%
Barometer: 30.14 inHg , 1020.7 hPa
Clouds: Few Clouds
Visibility: 10 miles , 16 km
Cloud details: Few Clouds 20000 ft
2020/12/02 05:56 KSFO 020556Z 00000KT 10SM FEW200 10/04 A3014 RMK AO2 SLP205 T01000039 10167 20100 51004 $
KAAT - Alturas, California, USA
Distance from station: NNW 175mi, 281km
Updated: Tue, 01-Dec-2020 9:55pm PST
Clear
Clear
 Wind from calm
Wind: Calm
Temperature: 21°F , -6°C
Dew Point: 16°F , -9°C
Humidity: 80%
Barometer: 30.35 inHg , 1027.8 hPa
Clouds: Clear
Visibility: 7 miles , 11 km
2020/12/02 05:55 KAAT 020555Z AUTO 00000KT 7SM CLR M06/M09 A3035 RMK AO2 SLP309 T10561089 10083 21061 53008
 
KBAM - Battle Mtn (vor), Nevada, USA
Distance from station: NE 182mi, 294km
Updated: Tue, 01-Dec-2020 9:55pm PST
Clear
Clear
 Wind from calm
Wind: Calm
Temperature: 23°F , -5°C
Dew Point: 18°F , -8°C
Humidity: 80%
Barometer: 30.42 inHg , 1030.1 hPa
Clouds: Clear
Visibility: 10 miles , 16 km
2020/12/02 05:55 KBAM 020555Z AUTO 00000KT 10SM CLR M05/M08 A3042 RMK AO1
KHAF - Half Moon Bay, California, USA
Distance from station: SW 184mi, 296km
Updated: Tue, 01-Dec-2020 9:55pm PST
Partly cloudy
Partly cloudy
 Wind from NW
Wind: NW 3 mph , 6 km/h
Temperature: 48°F , 9°C
Dew Point: 39°F , 4°C
Humidity: 71%
Barometer: 30.13 inHg , 1020.3 hPa
Clouds: Partly cloudy
Visibility: 10 miles , 16 km
Cloud details: Partly cloudy 300 ft
2020/12/02 05:55 KHAF 020555Z AUTO 32003KT 10SM SCT003 09/04 A3013 RMK AO2
 
KWVI - Watsonville, California, USA
Distance from station: SW 184mi, 296km
Updated: Tue, 01-Dec-2020 9:53pm PST
Clear
Clear
 Wind from calm
Wind: Calm
Temperature: 45°F , 7°C
Dew Point: 39°F , 4°C
Humidity: 81%
Barometer: 30.12 inHg , 1020 hPa
Clouds: Clear
Visibility: 10 miles , 16 km
2020/12/02 05:53 KWVI 020553Z AUTO 00000KT 10SM CLR 07/04 A3012 RMK AO2 SLP199 T00720039 10194 20050 53003
KUKI - Ukiah, California, USA
Distance from station: W 187mi, 300km
Updated: Tue, 01-Dec-2020 9:56pm PST
Clear
Clear
 Wind from calm
Wind: Calm
Temperature: 43°F , 6°C
Dew Point: 36°F , 2°C
Humidity: 76%
Barometer: 30.16 inHg , 1021.3 hPa
Clouds: Clear
Visibility: 9 miles , 14 km
2020/12/02 05:56 KUKI 020556Z AUTO 00000KT 9SM CLR 06/02 A3016 RMK AO2 SLP212 T00560022 10144 20050 51012
 
KHJO - Hanford, California, USA
Distance from station: S 188mi, 303km
Updated: Tue, 01-Dec-2020 9:53pm PST
Mist, Clear
Mist, Clear
 Wind from ENE
Wind: ENE 3 mph , 6 km/h
Temperature: 39°F , 4°C
Dew Point: 36°F , 2°C
Humidity: 87%
Barometer: 30.15 inHg , 1021 hPa
Summary: Mist
Clouds: Clear
Visibility: 4 miles , 6 km
2020/12/02 05:53 KHJO 020553Z AUTO 06003KT 4SM BR CLR 04/02 A3015 RMK AO2 SLP212 T00390022 10178 20039 54000
KNLC - Lemoore Nas/Reev, California, USA
Distance from station: S 188mi, 303km
Updated: Tue, 01-Dec-2020 9:56pm PST
Few Clouds
Few Clouds
 Wind from W
Wind: W 7 mph , 11 km/h
Temperature: 43°F , 6°C
Wind Chill: 39°F , 4°C
Dew Point: 25°F , -4°C
Humidity: 49%
Barometer: 30.14 inHg , 1020.7 hPa
Clouds: Few Clouds
Visibility: 10 miles , 16 km
Cloud details: Few Clouds 20000 ft
2020/12/02 05:56 KNLC 020556Z 26006KT 10SM FEW200 06/M04 A3014 RMK AO2 SLP208 RH/50 T00561039 10178 20050
 
KVIS - Visalia Muni, California, USA
Distance from station: S 189mi, 304km
Updated: Tue, 01-Dec-2020 9:56pm PST
Haze, Clear
Haze, Clear
 Wind from E
Wind: E 3 mph , 6 km/h
Temperature: 43°F , 6°C
Dew Point: 34°F , 1°C
Humidity: 71%
Barometer: 30.15 inHg , 1021 hPa
Summary: Haze
Clouds: Clear
Visibility: 5 miles , 8 km
2020/12/02 05:56 KVIS 020556Z AUTO 08003KT 5SM HZ CLR 06/01 A3015 RMK AO2 SLP217 T00560011 10167 20056 51001
KSNS - Salinas, California, USA
Distance from station: SSW 193mi, 311km
Updated: Tue, 01-Dec-2020 9:53pm PST
Clear
Clear
 Wind from S
Wind: S 3 mph , 6 km/h
Temperature: 46°F , 8°C
Dew Point: 43°F , 6°C
Humidity: 87%
Barometer: 30.11 inHg , 1019.6 hPa
Clouds: Clear
Visibility: 10 miles , 16 km
2020/12/02 05:53 KSNS 020553Z AUTO 18003KT 10SM CLR 08/06 A3011 RMK AO2 SLP207 T00780056 10167 20067 53005
 
K05U - Eureka, Nevada, USA
Distance from station: ENE 203mi, 326km
Updated: Tue, 01-Dec-2020 9:55pm PST
Clear
Clear
 Wind from calm
Wind: Calm
Temperature: 12°F , -11°C
Dew Point: 3°F , -16°C
Humidity: 67%
Barometer: 30.40 inHg , 1029.5 hPa
Clouds: Clear
Visibility: 10 miles , 16 km
2020/12/02 05:55 K05U 020555Z AUTO 00000KT 10SM CLR M11/M16 A3040 RMK A01
KP68 - Eureka, Nevada, USA
Distance from station: ENE 203mi, 326km
Updated: Tue, 01-Dec-2020 9:53pm PST

 Wind from S
Wind: S 6 mph , 9 km/h
Temperature: 12°F , -11°C
Wind Chill: 2°F , -17°C
Dew Point: 5°F , -15°C
Humidity: 73%
Barometer: 30.38 inHg , 1028.8 hPa
2020/12/02 05:53 KP68 020553Z AUTO 18005KT M11/M15 A3038 RMK AO1 SLP314 T11061150 10039 21122 50002
 
KMRY - Monterey, California, USA
Distance from station: SW 206mi, 331km
Updated: Tue, 01-Dec-2020 9:54pm PST
Clear
Clear
 Wind from SE
Wind: SE 5 mph , 7 km/h
Temperature: 45°F , 7°C
Wind Chill: 42°F , 6°C
Dew Point: 39°F , 4°C
Humidity: 81%
Barometer: 30.11 inHg , 1019.6 hPa
Clouds: Clear
Visibility: 10 miles , 16 km
2020/12/02 05:54 KMRY 020554Z AUTO 13004KT 10SM CLR 07/04 A3011 RMK AO2 SLP210 T00720039 10128 20067 55000
KO54 - Weaverville, California, USA
Distance from station: NW 207mi, 332km
Updated: Wed, 12-Aug-2020 11:15am PDT
NOT Current
Clear
Clear
 Wind from S
Wind: S 3 mph , 6 km/h
Temperature: 77°F , 25°C
Dew Point: 41°F , 5°C
Humidity: 28%
Barometer: 30.01 inHg , 1016.3 hPa
Clouds: Clear
Visibility: 10 miles , 16 km
2020/08/12 18:15 KO54 121815Z AUTO 17003KT 10SM CLR 25/05 A3001 RMK AO1
 
KO86 - Trinity Center, California, USA
Distance from station: NW 207mi, 333km
Updated: Fri, 25-Sep-2020 1:50am PDT
NOT Current
Mostly cloudy
Mostly cloudy
 Wind from W
Wind: W 5 mph , 7 km/h
Temperature: 50°F , 10°C
Wind Chill: 48°F , 9°C
Dew Point: 41°F , 5°C
Humidity: 71%
Barometer: 30.06 inHg , 1017.9 hPa
Clouds: Mostly cloudy
Visibility: 10 miles , 16 km
Cloud details: Mostly cloudy 4000 ft
2020/09/25 08:50 KO86 250850Z AUTO 27004KT 10SM BKN040 10/05 A3006 RMK AO1
KMHS - Mount Shasta, California, USA
Distance from station: NW 209mi, 336km
Updated: Tue, 01-Dec-2020 9:56pm PST
Clear
Clear
 Wind from ENE
Wind: ENE 3 mph , 6 km/h
Temperature: 30°F , -1°C
Dew Point: 23°F , -5°C
Humidity: 75%
Barometer: 30.27 inHg , 1025.1 hPa
Clouds: Clear
Visibility: 10 miles , 16 km
2020/12/02 05:56 KMHS 020556Z AUTO 07003KT 10SM CLR M01/M05 A3027 RMK AO2 SLP286 T10111050 10061 21011 53000 $
 
KPTV - Porterville, California, USA
Distance from station: S 212mi, 341km
Updated: Tue, 01-Dec-2020 9:56pm PST
Clear
Clear
 Wind from ESE
Wind: ESE 5 mph , 7 km/h
Temperature: 43°F , 6°C
Wind Chill: 40°F , 4°C
Dew Point: 34°F , 1°C
Humidity: 71%
Barometer: 30.15 inHg , 1021 hPa
Clouds: Clear
Visibility: 9 miles , 14 km
2020/12/02 05:56 KPTV 020556Z AUTO 11004KT 9SM CLR 06/01 A3015 RMK AO2 SLP209 T00560006 10167 20044 58001
KLKV - Lakeview, Oregon, USA
Distance from station: N 219mi, 353km
Updated: Tue, 01-Dec-2020 9:53pm PST
Clear
Clear
 Wind from NNE
Wind: NNE 6 mph , 9 km/h
Temperature: 28°F , -2°C
Wind Chill: 21°F , -6°C
Dew Point: 19°F , -7°C
Humidity: 69%
Barometer: 30.37 inHg , 1028.4 hPa
Clouds: Clear
Visibility: 10 miles , 16 km
2020/12/02 05:53 KLKV 020553Z AUTO 02005KT 10SM CLR M02/M07 A3037 RMK AO2 SLP315 T10171067 10050 21017 53004 FZRANO $
 
KSIY - Montague/Siskiyo, California, USA
Distance from station: NW 237mi, 382km
Updated: Tue, 01-Dec-2020 9:53pm PST
Clear
Clear
 Wind from E
Wind: E 5 mph , 7 km/h
Temperature: 28°F , -2°C
Wind Chill: 22°F , -6°C
Dew Point: 21°F , -6°C
Humidity: 74%
Barometer: 30.31 inHg , 1026.4 hPa
Clouds: Clear
Visibility: 10 miles , 16 km
2020/12/02 05:53 KSIY 020553Z AUTO 10004KT 10SM CLR M02/M06 A3031 RMK AO2 SLP295 T10171056 10089 21028 51000
KPRB - Paso Robles, California, USA
Distance from station: SSW 238mi, 383km
Updated: Tue, 01-Dec-2020 9:53pm PST
Clear
Clear
 Wind from calm
Wind: Calm
Temperature: 39°F , 4°C
Dew Point: 27°F , -3°C
Humidity: 61%
Barometer: 30.12 inHg , 1020 hPa
Clouds: Clear
Visibility: 10 miles , 16 km
2020/12/02 05:53 KPRB 020553Z AUTO 00000KT 10SM CLR 04/M03 A3012 RMK AO2 SLP201 T00391033 10189 20039 51004
 
KLMT - Klamath Falls, Oregon, USA
Distance from station: NNW 239mi, 385km
Updated: Tue, 01-Dec-2020 9:53pm PST
Clear
Clear
 Wind from varies
Wind: varies 6 mph , 9 km/h
Temperature: 28°F , -2°C
Wind Chill: 21°F , -6°C
Dew Point: 23°F , -5°C
Humidity: 80%
Barometer: 30.34 inHg , 1027.4 hPa
Clouds: Clear
Visibility: 10 miles , 16 km
2020/12/02 05:53 KLMT 020553Z AUTO VRB05KT 10SM CLR M02/M05 A3034 RMK AO2 SLP293 T10171050 10039 21033 51003
KEKO - Elko, Nevada, USA
Distance from station: ENE 242mi, 390km
Updated: Tue, 01-Dec-2020 9:56pm PST
Clear
Clear
 Wind from calm
Wind: Calm
Temperature: 16°F , -9°C
Dew Point: 10°F , -12°C
Humidity: 79%
Barometer: 30.39 inHg , 1029.1 hPa
Clouds: Clear
Visibility: 10 miles , 16 km
2020/12/02 05:56 KEKO 020556Z AUTO 00000KT 10SM CLR M09/M12 A3039 RMK AO2 SLP333 T10891117 10039 21089 51003
 
KBFL - Bakersfield, California, USA
Distance from station: S 252mi, 405km
Updated: Tue, 01-Dec-2020 9:54pm PST
Clear
Clear
 Wind from calm
Wind: Calm
Temperature: 46°F , 8°C
Dew Point: 28°F , -2°C
Humidity: 50%
Barometer: 30.13 inHg , 1020.3 hPa
Clouds: Clear
Visibility: 7 miles , 11 km
2020/12/02 05:54 KBFL 020554Z AUTO 00000KT 7SM CLR 08/M02 A3013 RMK AO2 SLP201 T00831017 10172 20083 58002
KFOT - Fortuna, California, USA
Distance from station: WNW 256mi, 413km
Updated: Tue, 24-Nov-2020 9:55am PST
NOT Current
Clear
Clear
 Wind from SSE
Wind: SSE 5 mph , 7 km/h
Temperature: 46°F , 8°C
Wind Chill: 44°F , 7°C
Dew Point: 45°F , 7°C
Humidity: 93%
Barometer: 30.19 inHg , 1022.4 hPa
Clouds: Clear
Visibility: 10 miles , 16 km
2020/11/24 17:55 KFOT 241755Z AUTO 15004KT 10SM CLR 08/07 A3019 RMK AO1
 
KNID - China Lake (naf), California, USA
Distance from station: SSE 259mi, 417km
Updated: Tue, 01-Dec-2020 9:56pm PST

 
Barometer: 30.19 inHg , 1022.4 hPa
2020/12/02 05:56 KNID 020556Z AUTO A3019 RMK AO2 SLPNO 53006 PWINO $
KDRA - Desert R/Mercury, Nevada, USA
Distance from station: SE 262mi, 421km
Updated: Tue, 01-Dec-2020 9:53pm PST
Clear
Clear
 Wind from NE
Wind: NE 10 mph , 17 km/h
Temperature: 46°F , 8°C
Wind Chill: 41°F , 5°C
Dew Point: 14°F , -10°C
Humidity: 27%
Barometer: 30.23 inHg , 1023.7 hPa
Clouds: Clear
Visibility: 10 miles , 16 km
2020/12/02 05:53 KDRA 020553Z AUTO 04009KT 10SM CLR 08/M10 A3023 RMK AO2 SLP219 T00831100 10167 20083 53007
 
KELY - Ely, Nevada, USA
Distance from station: E 262mi, 421km
Updated: Tue, 01-Dec-2020 9:53pm PST
Clear
Clear
 Wind from S
Wind: S 7 mph , 11 km/h
Temperature: 12°F , -11°C
Wind Chill: 1°F , -17°C
Dew Point: 3°F , -16°C
Humidity: 67%
Barometer: 30.35 inHg , 1027.8 hPa
Clouds: Clear
Visibility: 10 miles , 16 km
2020/12/02 05:53 KELY 020553Z AUTO 18006KT 10SM CLR M11/M16 A3035 RMK AO2 SLP312 T11061156 10022 21111 50002
KREO - Rome, Oregon, USA
Distance from station: NNE 263mi, 424km
Updated: Tue, 01-Dec-2020 9:52pm PST

 Wind from SW
Wind: SW 6 mph , 9 km/h
Temperature: 18°F , -8°C
Wind Chill: 10°F , -12°C
Dew Point: 16°F , -9°C
Humidity: 93%
Barometer: 30.43 inHg , 1030.5 hPa
2020/12/02 05:52 KREO 020552Z AUTO 22005KT M08/M09 A3043 RMK AO1 SLP343 T10781094 10028 21083 58004
 
KACV - Arcata/Eureka, California, USA
Distance from station: WNW 268mi, 431km
Updated: Tue, 01-Dec-2020 10:03pm PST
Mist, Clear
Mist, Clear
 Wind from calm
Wind: Calm
Temperature: 39°F , 4°C
Dew Point: 37°F , 3°C
Humidity: 93%
Barometer: 30.15 inHg , 1021 hPa
Summary: Mist
Clouds: Clear
Visibility: 3 miles , 5 km
2020/12/02 06:03 KACV 020603Z AUTO 00000KT 3SM BR CLR 04/03 A3015 RMK AO2 T00390028
KSBP - San Luis Obispo, California, USA
Distance from station: S 268mi, 431km
Updated: Tue, 01-Dec-2020 2:56pm PST
NOT Current
Clear
Clear
 Wind from NW
Wind: NW 13 mph , 20 km/h
Temperature: 77°F , 25°C
Dew Point: 30°F , -1°C
Humidity: 18%
Barometer: 30.01 inHg , 1016.3 hPa
Clouds: Clear
Visibility: 10 miles , 16 km
2020/12/01 22:56 KSBP 012256Z 31011KT 10SM SKC 25/M01 A3001
 
KINS - Indian Springs, Nevada, USA
Distance from station: SE 279mi, 449km
Updated: Tue, 01-Dec-2020 9:58pm PST
Clear
Clear
 Wind from calm
Wind: Calm
Temperature: 36°F , 2°C
Dew Point: 5°F , -15°C
Humidity: 27%
Barometer: 30.22 inHg , 1023.4 hPa
Clouds: Clear
Visibility: 10 miles , 16 km
2020/12/02 05:58 KINS 020558Z AUTO 00000KT 10SM CLR 02/M15 A3022 RMK AO2 SLP228 T00201155 10154 20015 53006 $
KTSP - Tehachapi, California, USA
Distance from station: SSE 279mi, 449km
Updated: Tue, 01-Dec-2020 9:55pm PST
Few Clouds
Few Clouds
 Wind from E
Wind: E 13 mph , 20 km/h
Temperature: 46°F , 8°C
Wind Chill: 40°F , 4°C
Dew Point: 7°F , -14°C
Humidity: 20%
Barometer: 30.22 inHg , 1023.4 hPa
Clouds: Few Clouds
Visibility: 10 miles , 16 km
Cloud details: Few Clouds 1800 ft
2020/12/02 05:55 KTSP 020555Z AUTO 09011KT 10SM FEW018 08/M14 A3022 RMK AO2
 
KMFR - Medford, Oregon, USA
Distance from station: NW 284mi, 457km
Updated: Tue, 01-Dec-2020 9:53pm PST
Mist, Clear
Mist, Clear
 Wind from calm
Wind: Calm
Temperature: 36°F , 2°C
Dew Point: 30°F , -1°C
Humidity: 81%
Barometer: 30.23 inHg , 1023.7 hPa
Summary: Mist
Clouds: Clear
Visibility: 6 miles , 10 km
2020/12/02 05:53 KMFR 020553Z AUTO 00000KT 6SM BR CLR 02/M01 A3023 RMK AO2 SLP246 T00171006 10083 20011 58001
KMHV - Mojave, California, USA
Distance from station: SSE 288mi, 463km
Updated: Tue, 01-Dec-2020 9:40pm PST
Clear
Clear
 Wind from NNW
Wind: NNW 9 mph , 15 km/h
Temperature: 45°F , 7°C
Wind Chill: 40°F , 4°C
Dew Point: 19°F , -7°C
Humidity: 37%
Barometer: 30.19 inHg , 1022.4 hPa
Clouds: Clear
Visibility: 10 miles , 16 km
2020/12/02 05:40 KMHV 020540Z AUTO 33008KT 10SM CLR 07/M07 A3019 RMK A01
 
KSMX - Santa Maria, California, USA
Distance from station: S 289mi, 465km
Updated: Tue, 01-Dec-2020 9:51pm PST
Clear
Clear
 Wind from S
Wind: S 3 mph , 6 km/h
Temperature: 48°F , 9°C
Dew Point: 41°F , 5°C
Humidity: 76%
Barometer: 30.07 inHg , 1018.3 hPa
Clouds: Clear
Visibility: 9 miles , 14 km
2020/12/02 05:51 KSMX 020551Z AUTO 18003KT 9SM CLR 09/05 A3007 RMK AO2 SLP183 T00890050 10183 20078 51005
K9L2 - Edwards N-Aux, California, USA
Distance from station: SSE 299mi, 482km
Updated: Tue, 01-Dec-2020 9:58pm PST
Clear
Clear
 Wind from calm
Wind: Calm
Temperature: 34°F , 1°C
Dew Point: 1°F , -17°C
Humidity: 25%
Barometer: 30.18 inHg , 1022 hPa
Clouds: Clear
Visibility: 10 miles , 16 km
2020/12/02 05:58 K9L2 020558Z AUTO 00000KT 10SM CLR 01/M17 A3018 RMK AO2 SLP230 T00121173 10191 20011 52007 FZRANO
Honor Flight NV - Honoring all of our Veterans CoCoRaHS (Community Collaborative Rain, Hail and Snow Network) Station Number: NV-DG-2 Live Lightning Map - USA Reno Skywarn Spotter ID: DO21 AlertID Southwestern Weather Network Carson Valley Community Food Closet - providing for the needs of our community



Do you have a Teacher in the family or are a teacher yourself?
Check out this new website for the Teacher Community.
(Click on the logo below)
Teacher 
		  Times Two Designs - providing  teacher tees & accessories for the teaching community

(Click on the Flag Counter logo below for details in new browser tab)
Flag Counter